Broughton, Illinois
Current Conditions -  °F | °C
As of 7:55 AM on Wednesday 26 Nov 2014 (Local Time) from KHSB Reporting Station
Haze Haze  
Wind Chill: -5°   Ceiling: Unl
Heat Index: -2°   Visibility: 4mi
Dew Point: -2°   Wind: 5mph
Humidity: 100%   Direction: 110°ESE
Pressure: 30.15"   Gusts: NA
Location:  37.93°N, 88.46°W
Report Text: KHSB 261355Z AUTO 11004KT 4SM BR CLR M02/M02 A3015 RMK AO2 T10211021
Loading
Personal Weather Stations






























Interactive Weather Map New forecast layout! Learn more

10-Day Weather Forecast

Advertisements
Track Severe Weather on mobile